Hermiston, OR (97838)

12:54 PM PST on January 20, 2017 (GMT -0800)
West Park Area, JW's Backyard | | Change Station

Elev 460 ft 45.84 °N, 119.30 °W | Updated 1 minute ago

Overcast
Overcast
40.5 °F
Feels Like 40 °F
N
0.0
Wind Variable Wind from East
Gusts 0.0 mph

Today
High -- | Low -- °F
--% Chance of Precip.
Yesterday
High -- | Low -- °F
Precip. -- in
Pressure 29.21 in
Visibility 7.0 miles
Clouds Overcast 7500 ft
Windchill 40 °F
Dew Point 28 °F
Humidity 61%
Rainfall 0.04 in
Snow Depth Not available.
7:30 AM 4:46 PM
Last Quarter, 41% visible
METAR KHRI 201953Z AUTO VRB03KT 7SM OVC075 02/00 A2919 RMK AO2 SLP890 T00220000
Pressure 29.21 in
Visibility 7.0 miles
Clouds Overcast 7500 ft
Windchill 40 °F
Dew Point 28 °F
Humidity 61%
Rainfall 0.04 in
Snow Depth Not available.
7:30 AM 4:46 PM
Last Quarter, 41% visible
METAR KHRI 201953Z AUTO VRB03KT 7SM OVC075 02/00 A2919 RMK AO2 SLP890 T00220000

Get Your Daily Forecast Email!

Thanks for signing up!

Be on the lookout for a verification email in your inbox.

You'll start receiving the daily forecast at 8 AM.

×

10-Day Weather Forecast

Almanac

Astronomy

Jan. 20, 2017 Rise Set
Actual Time
Civil Twilight
Nautical Twilight
Astronomical Twilight
Moon
Length of Visible Light
Length of Day
Tomorrow will be .
, % of the Moon is Illuminated

Today's Extremes

State Highs State Lows

Community

WunderPhotos

Upload Photos

1,962,540 photos uploaded!

WunderBlog® & News

Nearby

Air Quality

  Air Quality AQ Index Pollutant
Not available.

Snow Depth

Station Depth Elevation

Earthquake Activity

City Distance Mag. Time & Date
Minimum magnitude displayed is 2.5.

Coastal Water Temperatures

Place Temperature

Stations

Nearby Weather Stations

Station Location Temp. Windchill Dew Point Humidity Wind Precip. Elev Updated Type
                   

Watches & Warnings

There are currently no watches in effect.